Time;durP1;ratioP1;P1;durP2;ratioP2;P2;SDS_P1;SDS_P2;PMS_P1;PMS_P2;Temp;Humidity;BMP_temperature;BMP_pressure;BME280_temperature;BME280_humidity;BME280_pressure;Samples;Min_cycle;Max_cycle;Signal;HPM_P1;HPM_P2
2021/03/02 00:00:04;;;;;;;29.98;18.65;;;3.50;99.90;;;;;;5094583;28;20183;-66
2021/03/02 00:02:31;;;;;;;27.48;16.42;;;3.40;99.90;;;;;;5095714;28;20273;-65
2021/03/02 00:04:57;;;;;;;26.60;17.25;;;3.40;99.90;;;;;;5094424;28;20228;-66
2021/03/02 00:07:26;;;;;;;28.43;16.83;;;3.40;99.90;;;;;;5095967;28;20181;-66
2021/03/02 00:09:52;;;;;;;31.45;17.77;;;3.40;99.90;;;;;;5095698;28;20687;-65
2021/03/02 00:12:18;;;;;;;33.58;19.30;;;3.50;99.90;;;;;;5095817;28;20172;-65
2021/03/02 00:14:44;;;;;;;29.45;16.85;;;3.40;99.90;;;;;;5095547;28;20203;-65
2021/03/02 00:17:33;;;;;;;28.27;15.60;;;3.30;99.90;;;;;;5095695;28;20180;-65
2021/03/02 00:20:11;;;;;;;25.55;17.45;;;3.30;99.90;;;;;;5095418;28;20196;-66
2021/03/02 00:22:49;;;;;;;27.42;17.13;;;3.30;99.90;;;;;;5095218;28;20712;-65
2021/03/02 00:25:15;;;;;;;29.10;16.50;;;3.20;99.90;;;;;;5094171;28;20260;-67
2021/03/02 00:27:41;;;;;;;27.25;15.30;;;3.20;99.90;;;;;;5095521;28;20185;-65
2021/03/02 00:36:50;;;;;;;29.63;16.60;;;3.20;99.90;;;;;;5095095;28;20227;-65
2021/03/02 00:39:16;;;;;;;31.37;17.67;;;3.00;99.90;;;;;;5093750;28;20220;-65
2021/03/02 00:41:43;;;;;;;30.60;17.33;;;3.00;99.90;;;;;;5094707;28;20653;-65
2021/03/02 00:44:08;;;;;;;27.30;16.50;;;3.00;99.90;;;;;;5095003;28;20254;-65
2021/03/02 00:46:34;;;;;;;30.70;17.57;;;3.00;99.90;;;;;;5094954;28;20168;-65
2021/03/02 00:49:00;;;;;;;29.08;17.13;;;3.00;99.90;;;;;;5094906;28;20212;-65
2021/03/02 00:51:26;;;;;;;28.67;16.17;;;2.90;99.90;;;;;;5094875;28;20169;-65
2021/03/02 00:53:51;;;;;;;32.73;16.57;;;2.90;99.90;;;;;;5093501;28;20204;-65
2021/03/02 00:56:17;;;;;;;34.93;17.00;;;2.90;99.90;;;;;;5094742;28;20172;-65
2021/03/02 00:58:44;;;;;;;28.53;17.37;;;2.90;99.90;;;;;;5095100;28;20196;-65
2021/03/02 01:01:11;;;;;;;26.08;15.88;;;2.90;99.90;;;;;;5094643;28;20303;-65
2021/03/02 01:03:37;;;;;;;30.65;16.40;;;2.80;99.90;;;;;;5094495;28;20207;-66
2021/03/02 01:06:03;;;;;;;28.17;15.97;;;2.80;99.90;;;;;;5094592;28;20175;-66
2021/03/02 01:08:28;;;;;;;26.70;15.37;;;2.80;99.90;;;;;;5094981;28;20213;-65
2021/03/02 01:10:54;;;;;;;33.77;16.90;;;2.70;99.90;;;;;;5094624;28;20401;-67
2021/03/02 01:13:20;;;;;;;32.20;17.20;;;2.60;99.90;;;;;;5094790;28;20200;-65
2021/03/02 01:15:45;;;;;;;34.00;16.20;;;2.50;99.90;;;;;;5094473;28;20209;-66
2021/03/02 01:18:11;;;;;;;31.33;17.10;;;2.50;99.90;;;;;;5094696;28;20649;-65
2021/03/02 01:20:37;;;;;;;27.43;15.33;;;2.40;99.90;;;;;;5094226;28;20176;-66
2021/03/02 01:23:03;;;;;;;26.80;15.70;;;2.10;99.90;;;;;;5094546;28;20200;-65
2021/03/02 01:25:29;;;;;;;32.97;17.02;;;2.30;99.90;;;;;;5094301;28;20177;-65
2021/03/02 01:27:54;;;;;;;26.83;14.60;;;2.40;99.90;;;;;;5093058;28;20620;-66
2021/03/02 01:30:22;;;;;;;29.00;16.23;;;2.40;99.90;;;;;;5094230;28;20263;-67
2021/03/02 01:32:48;;;;;;;32.42;17.77;;;2.40;99.90;;;;;;5094517;28;20180;-65
2021/03/02 01:35:14;;;;;;;28.70;17.67;;;2.40;99.90;;;;;;5094210;28;20655;-66
2021/03/02 01:37:39;;;;;;;30.73;16.37;;;2.40;99.90;;;;;;5094250;28;20176;-65
2021/03/02 01:40:13;;;;;;;28.97;16.10;;;2.50;99.90;;;;;;5094091;28;20190;-66
2021/03/02 01:42:39;;;;;;;31.23;18.50;;;2.40;99.90;;;;;;5094108;28;20592;-65
2021/03/02 01:45:10;;;;;;;30.20;17.27;;;2.40;99.90;;;;;;5093971;28;20260;-66
2021/03/02 01:47:37;;;;;;;33.25;18.75;;;2.40;99.90;;;;;;5094152;28;20208;-64
2021/03/02 01:50:04;;;;;;;30.98;17.20;;;2.40;99.90;;;;;;5093250;28;20226;-66
2021/03/02 01:52:30;;;;;;;28.48;17.17;;;2.40;99.90;;;;;;5094061;28;20209;-66
2021/03/02 01:54:55;;;;;;;32.60;17.83;;;2.30;99.90;;;;;;5092576;28;20227;-66
2021/03/02 01:57:21;;;;;;;30.90;18.93;;;2.40;99.90;;;;;;5094060;28;20183;-66
2021/03/02 01:59:47;;;;;;;26.20;16.37;;;2.40;99.90;;;;;;5092493;28;20200;-65
2021/03/02 02:02:20;;;;;;;26.73;15.63;;;2.30;99.90;;;;;;5093899;28;20212;-65
2021/03/02 02:04:51;;;;;;;31.02;16.88;;;2.30;99.90;;;;;;5093734;28;20191;-66
2021/03/02 02:07:26;;;;;;;31.25;17.25;;;2.20;99.90;;;;;;5093988;28;20671;-66
2021/03/02 02:10:02;;;;;;;27.15;15.48;;;2.20;99.90;;;;;;5093745;28;20188;-64
2021/03/02 02:12:41;;;;;;;32.60;18.15;;;2.20;99.90;;;;;;5093977;28;20172;-66
2021/03/02 02:15:08;;;;;;;31.35;16.05;;;2.20;99.90;;;;;;5092491;28;20177;-66
2021/03/02 02:17:55;;;;;;;26.23;15.00;;;2.10;99.90;;;;;;5093887;28;20181;-65
2021/03/02 02:20:48;;;;;;;27.60;15.25;;;2.10;99.90;;;;;;5093573;28;20169;-65
2021/03/02 02:23:14;;;;;;;29.23;16.67;;;2.20;99.90;;;;;;5093419;28;20261;-64
2021/03/02 02:26:22;;;;;;;30.70;16.10;;;2.10;99.90;;;;;;5093500;28;20568;-66
2021/03/02 02:28:49;;;;;;;25.30;14.38;;;2.10;99.90;;;;;;5027213;28;20218;-65
2021/03/02 02:31:18;;;;;;;28.45;15.43;;;2.10;99.90;;;;;;5093776;28;20153;-65
2021/03/02 02:33:44;;;;;;;28.67;15.70;;;1.90;99.90;;;;;;5092388;28;20199;-65
2021/03/02 02:36:14;;;;;;;31.58;15.48;;;2.00;99.90;;;;;;5093564;28;20172;-66
2021/03/02 02:38:48;;;;;;;32.08;16.20;;;2.10;99.90;;;;;;5093850;28;20231;-65
2021/03/02 02:41:15;;;;;;;29.80;17.13;;;2.10;99.90;;;;;;5091931;28;20236;-65
2021/03/02 02:43:41;;;;;;;26.13;15.95;;;2.10;99.90;;;;;;5093757;28;20196;-66
2021/03/02 02:46:08;;;;;;;33.13;17.58;;;2.10;99.90;;;;;;5092234;28;20176;-66
2021/03/02 02:48:34;;;;;;;32.45;17.35;;;1.90;99.90;;;;;;5093800;28;20211;-65
2021/03/02 02:51:00;;;;;;;29.70;17.30;;;2.00;99.90;;;;;;5093328;28;20181;-66
2021/03/02 02:53:28;;;;;;;34.08;17.63;;;1.90;99.90;;;;;;5093738;28;20184;-64
2021/03/02 02:56:00;;;;;;;32.78;17.25;;;2.00;99.90;;;;;;5093271;28;20219;-65
2021/03/02 02:58:32;;;;;;;28.02;17.15;;;2.10;99.90;;;;;;5092224;28;20197;-65
2021/03/02 03:01:02;;;;;;;26.67;16.45;;;2.10;99.90;;;;;;5095739;28;20216;-66
2021/03/02 03:03:29;;;;;;;30.85;18.00;;;2.10;99.90;;;;;;5097473;28;20192;-65
2021/03/02 03:05:59;;;;;;;31.92;17.30;;;1.90;99.90;;;;;;5096948;28;20242;-65
2021/03/02 03:08:31;;;;;;;32.47;17.40;;;2.00;99.90;;;;;;5097273;28;20196;-65
2021/03/02 03:10:59;;;;;;;35.75;18.30;;;2.00;99.90;;;;;;5095658;28;20691;-65
2021/03/02 03:13:29;;;;;;;32.25;16.77;;;2.10;99.90;;;;;;5097189;28;20189;-65
2021/03/02 03:16:00;;;;;;;34.42;18.45;;;2.10;99.90;;;;;;5096745;28;20263;-65
2021/03/02 03:18:31;;;;;;;32.78;17.67;;;2.00;99.90;;;;;;5097149;28;20275;-65
2021/03/02 03:20:59;;;;;;;35.55;19.40;;;1.90;99.90;;;;;;5096731;28;20240;-65
2021/03/02 03:23:25;;;;;;;32.72;17.05;;;1.90;99.90;;;;;;5097053;28;20181;-65
2021/03/02 03:25:51;;;;;;;36.53;19.63;;;1.80;99.90;;;;;;5096581;28;20182;-65
2021/03/02 03:28:18;;;;;;;31.80;18.10;;;1.80;99.90;;;;;;5096881;28;20275;-65
2021/03/02 03:30:44;;;;;;;29.88;17.15;;;1.80;99.90;;;;;;5096493;28;20201;-65
2021/03/02 03:33:12;;;;;;;35.80;18.52;;;1.70;99.90;;;;;;5096796;28;20675;-65
2021/03/02 03:35:40;;;;;;;34.42;19.38;;;1.70;99.90;;;;;;5096386;28;20280;-66
2021/03/02 03:38:06;;;;;;;37.45;19.10;;;1.70;99.90;;;;;;5096717;28;20682;-65
2021/03/02 03:40:32;;;;;;;33.77;16.90;;;1.70;99.90;;;;;;5094746;28;20240;-65
2021/03/02 03:42:58;;;;;;;35.30;18.00;;;1.70;99.90;;;;;;5096534;28;20403;-64
2021/03/02 03:45:23;;;;;;;31.03;17.60;;;1.70;99.90;;;;;;5096204;28;20665;-66
2021/03/02 03:47:49;;;;;;;35.77;19.50;;;1.70;99.90;;;;;;5096337;28;20184;-65
2021/03/02 03:50:16;;;;;;;39.63;19.47;;;1.60;99.90;;;;;;5094872;28;20695;-66
2021/03/02 03:52:52;;;;;;;38.00;20.50;;;1.50;99.90;;;;;;5095905;28;20827;-65
2021/03/02 03:55:20;;;;;;;36.50;18.88;;;1.50;99.90;;;;;;5096145;28;20165;-65
2021/03/02 03:57:47;;;;;;;34.50;17.70;;;1.50;99.90;;;;;;5094774;28;20541;-65
2021/03/02 04:00:14;;;;;;;36.00;20.05;;;1.50;99.90;;;;;;5094583;28;20654;-66
2021/03/02 04:02:40;;;;;;;38.03;18.50;;;1.50;99.90;;;;;;5095844;28;20216;-65
2021/03/02 04:05:07;;;;;;;33.63;19.60;;;1.40;99.90;;;;;;5094523;28;20180;-66
2021/03/02 04:07:34;;;;;;;37.97;19.40;;;1.40;99.90;;;;;;5095891;28;20247;-65
2021/03/02 04:10:05;;;;;;;39.80;20.75;;;1.50;99.90;;;;;;5094478;28;20267;-65
2021/03/02 04:12:43;;;;;;;37.53;19.50;;;1.50;99.90;;;;;;5093819;28;20173;-66
2021/03/02 04:15:14;;;;;;;39.33;19.20;;;1.40;99.90;;;;;;5095685;28;20179;-65
2021/03/02 04:17:40;;;;;;;35.83;19.48;;;1.50;99.90;;;;;;5095640;28;20170;-65
2021/03/02 04:20:06;;;;;;;30.23;18.53;;;1.50;99.90;;;;;;5095587;28;20268;-66
2021/03/02 04:22:36;;;;;;;39.35;19.70;;;1.40;99.90;;;;;;5095474;28;20495;-65
2021/03/02 04:25:04;;;;;;;32.83;16.70;;;1.30;99.90;;;;;;5095418;28;20190;-64
2021/03/02 04:27:29;;;;;;;34.95;19.58;;;1.30;99.90;;;;;;5095528;28;20181;-65
2021/03/02 04:29:55;;;;;;;40.17;21.80;;;1.40;99.90;;;;;;5094017;28;20688;-66
2021/03/02 04:32:21;;;;;;;37.87;19.60;;;1.50;99.90;;;;;;5094073;28;20215;-66
2021/03/02 04:34:46;;;;;;;37.90;18.73;;;1.40;99.90;;;;;;5095181;28;20620;-66
2021/03/02 04:37:12;;;;;;;30.73;18.03;;;1.50;99.90;;;;;;5095370;28;20255;-65
2021/03/02 04:39:38;;;;;;;36.10;19.50;;;1.60;99.90;;;;;;5095048;28;20195;-65
2021/03/02 04:42:04;;;;;;;38.47;18.20;;;1.60;99.90;;;;;;5094985;28;20235;-66
2021/03/02 04:44:30;;;;;;;36.42;17.92;;;1.60;99.90;;;;;;5094976;28;20421;-64
2021/03/02 04:46:56;;;;;;;29.90;16.80;;;1.70;99.90;;;;;;5095265;28;20183;-65
2021/03/02 04:49:22;;;;;;;37.43;19.73;;;1.80;99.90;;;;;;5094905;28;20478;-64
2021/03/02 04:51:47;;;;;;;32.20;18.40;;;1.80;99.90;;;;;;5094705;28;20413;-64
2021/03/02 04:54:13;;;;;;;36.50;18.80;;;1.80;99.90;;;;;;5094825;28;20192;-65
2021/03/02 04:56:39;;;;;;;36.60;19.93;;;1.70;99.90;;;;;;5094776;28;20214;-65
2021/03/02 04:59:04;;;;;;;33.57;17.87;;;1.80;99.90;;;;;;5093387;28;20338;-65
2021/03/02 05:01:30;;;;;;;37.40;19.77;;;1.80;99.90;;;;;;5094527;28;20693;-65
2021/03/02 05:03:56;;;;;;;34.10;19.87;;;1.80;99.90;;;;;;5094599;28;20192;-65
2021/03/02 05:06:21;;;;;;;35.87;20.90;;;1.80;99.90;;;;;;5094558;28;20182;-65
2021/03/02 05:08:47;;;;;;;38.63;21.60;;;1.80;99.90;;;;;;5094512;28;20196;-65
2021/03/02 05:11:12;;;;;;;39.67;22.60;;;1.80;99.90;;;;;;5093300;28;20180;-66
2021/03/02 05:13:38;;;;;;;33.43;20.20;;;1.70;99.90;;;;;;5094905;28;20185;-66
2021/03/02 05:16:04;;;;;;;36.27;21.97;;;1.60;99.90;;;;;;5094520;28;20180;-65
2021/03/02 05:18:29;;;;;;;39.87;23.10;;;1.60;99.90;;;;;;5094777;28;20311;-66
2021/03/02 05:20:55;;;;;;;36.07;20.90;;;1.60;99.90;;;;;;5094288;28;20432;-66
2021/03/02 05:23:21;;;;;;;35.03;19.40;;;2.70;99.90;;;;;;5093772;28;20265;-65
2021/03/02 05:25:46;;;;;;;35.83;20.77;;;3.30;99.90;;;;;;5094367;28;20666;-67
2021/03/02 05:28:12;;;;;;;44.77;22.70;;;3.30;99.90;;;;;;5094612;28;20188;-65
2021/03/02 05:30:37;;;;;;;40.50;22.63;;;3.80;99.90;;;;;;5094235;28;20176;-66
2021/03/02 05:33:03;;;;;;;42.00;21.70;;;4.40;99.90;;;;;;5094498;28;20227;-65
2021/03/02 05:35:29;;;;;;;37.13;21.60;;;4.90;99.90;;;;;;5094284;28;20602;-66
2021/03/02 05:37:55;;;;;;;36.17;20.53;;;5.20;99.90;;;;;;5094444;28;20495;-66
2021/03/02 05:40:20;;;;;;;45.40;23.10;;;5.40;99.90;;;;;;5092593;28;20208;-66
2021/03/02 05:42:46;;;;;;;48.10;27.10;;;5.60;99.90;;;;;;5092894;28;20269;-66
2021/03/02 05:45:13;;;;;;;58.63;32.40;;;5.70;99.90;;;;;;5094040;28;20200;-66
2021/03/02 05:47:39;;;;;;;52.33;31.40;;;5.80;99.90;;;;;;5093981;28;20504;-65
2021/03/02 05:50:05;;;;;;;48.63;30.48;;;6.00;99.90;;;;;;5092631;28;20528;-66
2021/03/02 05:52:31;;;;;;;49.13;28.85;;;6.10;99.90;;;;;;5094103;28;20275;-65
2021/03/02 05:54:59;;;;;;;52.75;29.27;;;6.10;99.90;;;;;;5091745;28;20726;-66
2021/03/02 05:57:25;;;;;;;54.05;30.00;;;6.20;99.90;;;;;;5088087;28;20230;-66
2021/03/02 05:59:51;;;;;;;46.83;30.47;;;6.30;99.90;;;;;;5091307;28;20212;-66
2021/03/02 06:02:18;;;;;;;50.43;28.17;;;6.40;99.90;;;;;;5093776;28;20601;-66
2021/03/02 06:04:43;;;;;;;50.15;29.08;;;6.50;99.90;;;;;;5093671;28;20402;-66
2021/03/02 06:07:09;;;;;;;55.73;32.23;;;6.50;99.90;;;;;;5092633;28;20630;-65
2021/03/02 06:09:35;;;;;;;60.30;33.40;;;6.20;99.90;;;;;;5091143;28;20208;-65
2021/03/02 06:12:02;;;;;;;59.43;34.53;;;4.60;99.90;;;;;;5089819;28;20535;-66
2021/03/02 06:14:30;;;;;;;67.63;37.17;;;4.00;99.90;;;;;;5087661;28;20200;-65
2021/03/02 06:16:56;;;;;;;68.47;37.15;;;3.00;99.90;;;;;;5091860;28;20191;-66
2021/03/02 06:19:41;;;;;;;82.60;42.15;;;2.90;99.90;;;;;;5090614;28;20200;-66
2021/03/02 06:22:26;;;;;;;86.40;41.63;;;2.80;99.90;;;;;;5087572;28;20609;-65
2021/03/02 06:24:52;;;;;;;66.78;33.63;;;2.70;99.90;;;;;;5091077;28;20238;-65
2021/03/02 06:27:17;;;;;;;60.73;31.70;;;2.60;99.90;;;;;;5093129;28;20223;-65
2021/03/02 06:30:03;;;;;;;62.40;32.27;;;2.70;99.90;;;;;;5092716;28;20565;-66
2021/03/02 06:32:40;;;;;;;47.50;27.77;;;2.70;99.90;;;;;;5053264;28;20601;-65
2021/03/02 06:35:07;;;;;;;50.72;27.70;;;2.90;99.90;;;;;;5058851;28;20193;-66
2021/03/02 06:37:44;;;;;;;47.70;27.50;;;2.90;99.90;;;;;;5096116;28;20176;-65
2021/03/02 06:40:13;;;;;;;52.85;31.90;;;3.00;99.90;;;;;;5094910;28;20188;-66
2021/03/02 06:42:45;;;;;;;59.00;32.60;;;2.90;99.90;;;;;;5096646;28;20217;-65
2021/03/02 06:45:15;;;;;;;66.60;34.30;;;2.90;99.90;;;;;;5096966;28;20284;-66
2021/03/02 06:47:43;;;;;;;63.17;33.55;;;2.80;99.90;;;;;;5095989;28;20718;-65
2021/03/02 06:50:12;;;;;;;58.25;34.13;;;2.80;99.90;;;;;;5095764;28;20187;-66
2021/03/02 06:52:40;;;;;;;57.17;36.00;;;2.90;99.90;;;;;;5097272;28;20253;-65
2021/03/02 06:55:27;;;;;;;53.38;31.95;;;3.00;99.90;;;;;;5097193;28;20565;-65
2021/03/02 06:58:15;;;;;;;59.97;33.35;;;3.30;99.90;;;;;;5096378;28;20181;-65
2021/03/02 07:00:55;;;;;;;53.80;31.27;;;3.40;99.90;;;;;;5085038;28;20562;-66
2021/03/02 07:03:27;;;;;;;54.83;31.08;;;3.50;99.90;;;;;;5097408;28;20212;-65
2021/03/02 07:05:55;;;;;;;44.25;26.92;;;3.50;99.90;;;;;;5096327;28;20195;-66
2021/03/02 07:08:21;;;;;;;44.92;26.73;;;3.80;99.90;;;;;;5097107;28;20207;-65
2021/03/02 07:10:51;;;;;;;48.25;27.52;;;3.90;99.90;;;;;;5095804;28;20184;-66
2021/03/02 07:13:18;;;;;;;40.90;24.73;;;4.10;99.90;;;;;;5095914;28;20370;-66
2021/03/02 07:15:46;;;;;;;51.42;30.88;;;4.10;99.90;;;;;;5096246;28;20580;-67
2021/03/02 07:18:15;;;;;;;49.20;32.50;;;4.40;99.90;;;;;;5095456;28;20197;-65
2021/03/02 07:20:47;;;;;;;52.88;36.90;;;4.50;99.90;;;;;;5095595;28;20259;-67
2021/03/02 07:23:20;;;;;;;45.55;30.02;;;4.80;99.90;;;;;;5095235;28;20204;-66
2021/03/02 07:25:47;;;;;;;46.38;25.02;;;4.80;99.90;;;;;;5088507;28;20318;-65
2021/03/02 07:28:16;;;;;;;34.92;20.98;;;4.90;99.90;;;;;;5087543;28;20216;-66
2021/03/02 07:30:45;;;;;;;36.38;20.70;;;5.10;99.90;;;;;;5067445;28;20231;-66
2021/03/02 07:33:11;;;;;;;33.95;20.92;;;5.30;99.90;;;;;;5076527;28;20239;-66
2021/03/02 07:35:37;;;;;;;40.10;21.80;;;5.40;99.90;;;;;;5079816;28;20340;-66
2021/03/02 07:38:20;;;;;;;33.42;19.50;;;5.60;99.90;;;;;;5090001;28;20214;-67
2021/03/02 07:40:54;;;;;;;38.00;21.10;;;5.80;99.90;;;;;;5092665;28;20240;-66
2021/03/02 07:43:31;;;;;;;31.58;19.83;;;6.00;99.90;;;;;;5082907;28;20201;-65
2021/03/02 07:45:58;;;;;;;33.67;19.55;;;6.10;99.90;;;;;;5085410;28;20184;-66
2021/03/02 07:48:31;;;;;;;29.92;18.15;;;6.40;99.90;;;;;;5091597;28;20227;-66
2021/03/02 07:51:19;;;;;;;33.13;17.08;;;6.70;99.90;;;;;;5088001;28;20180;-67
2021/03/02 07:53:46;;;;;;;29.17;16.15;;;6.90;99.90;;;;;;5089343;28;20204;-67
2021/03/02 07:56:23;;;;;;;28.50;16.80;;;6.90;99.90;;;;;;5087615;28;20257;-66
2021/03/02 07:59:04;;;;;;;31.27;15.95;;;7.10;99.90;;;;;;5095739;28;20249;-66
2021/03/02 08:01:30;;;;;;;29.95;16.90;;;7.50;99.90;;;;;;5093185;28;20777;-66
2021/03/02 08:04:25;;;;;;;28.52;19.35;;;7.70;99.90;;;;;;5089912;28;20200;-67
2021/03/02 08:06:51;;;;;;;27.20;15.95;;;7.80;99.90;;;;;;5075923;28;20204;-66
2021/03/02 08:09:26;;;;;;;25.70;16.67;;;7.70;99.90;;;;;;5075932;28;20204;-66
2021/03/02 08:11:54;;;;;;;27.25;17.17;;;8.30;99.90;;;;;;5090140;28;20180;-66
2021/03/02 08:14:25;;;;;;;26.13;17.00;;;8.70;99.90;;;;;;5083058;28;20193;-66
2021/03/02 08:17:02;;;;;;;30.38;18.80;;;8.90;99.90;;;;;;5078016;28;20615;-66
2021/03/02 08:19:34;;;;;;;25.70;16.85;;;9.60;99.90;;;;;;5083638;28;20197;-66
2021/03/02 08:22:23;;;;;;;30.15;18.80;;;9.40;99.90;;;;;;5083259;28;20266;-66
2021/03/02 08:24:49;;;;;;;35.53;22.20;;;10.00;99.90;;;;;;5074949;28;20723;-67
2021/03/02 08:27:16;;;;;;;20.58;15.07;;;10.80;99.90;;;;;;5087029;28;20237;-67
2021/03/02 08:29:49;;;;;;;21.77;15.85;;;11.00;99.90;;;;;;5082467;28;20310;-67
2021/03/02 08:32:17;;;;;;;18.47;13.13;;;11.40;99.90;;;;;;5084609;28;20214;-67
2021/03/02 08:34:44;;;;;;;21.03;14.83;;;12.00;99.90;;;;;;5091339;28;20472;-67
2021/03/02 08:37:10;;;;;;;21.33;15.60;;;12.50;99.90;;;;;;5083048;28;20527;-67
2021/03/02 08:39:36;;;;;;;20.63;13.77;;;12.70;99.90;;;;;;5081593;28;20655;-67
2021/03/02 08:42:05;;;;;;;18.23;14.13;;;12.70;99.90;;;;;;5083949;28;20231;-68
2021/03/02 08:44:31;;;;;;;16.30;12.13;;;12.80;99.90;;;;;;5073908;28;20425;-66
2021/03/02 08:46:57;;;;;;;17.33;12.60;;;13.40;99.90;;;;;;5069756;28;20413;-67
2021/03/02 08:49:24;;;;;;;16.20;11.93;;;13.80;99.90;;;;;;5083518;28;20196;-67
2021/03/02 08:52:02;;;;;;;16.20;11.70;;;14.10;97.50;;;;;;5087534;28;20663;-68
2021/03/02 08:54:28;;;;;;;17.47;11.63;;;14.40;95.00;;;;;;5091694;28;20449;-68
2021/03/02 08:57:04;;;;;;;15.37;10.50;;;14.70;96.60;;;;;;5086703;28;20445;-68
2021/03/02 08:59:31;;;;;;;13.07;11.43;;;15.20;93.60;;;;;;5091585;28;20228;-67
2021/03/02 09:01:57;;;;;;;13.93;11.07;;;15.50;92.70;;;;;;5092341;28;20516;-67
2021/03/02 09:04:30;;;;;;;14.60;11.33;;;15.70;90.60;;;;;;5094096;28;20973;-67
2021/03/02 09:06:55;;;;;;;14.80;11.50;;;15.50;91.10;;;;;;5088257;28;20266;-68
2021/03/02 09:09:23;;;;;;;14.13;10.80;;;15.80;90.10;;;;;;5081273;28;21078;-67
2021/03/02 09:11:55;;;;;;;13.10;10.50;;;15.50;86.70;;;;;;5085689;28;20577;-67
2021/03/02 09:14:36;;;;;;;13.37;11.97;;;16.20;84.60;;;;;;5081967;28;20486;-68
2021/03/02 09:17:03;;;;;;;12.50;11.20;;;17.10;83.30;;;;;;5067422;28;20448;-67
2021/03/02 09:19:33;;;;;;;14.10;12.13;;;17.30;80.70;;;;;;5076594;28;20450;-68
2021/03/02 09:21:58;;;;;;;14.77;12.40;;;16.60;79.90;;;;;;5058854;28;20871;-67
2021/03/02 09:24:27;;;;;;;12.60;10.90;;;17.30;80.30;;;;;;5069211;28;20500;-68
2021/03/02 09:26:54;;;;;;;15.40;12.13;;;17.70;79.60;;;;;;5068967;28;20201;-68
2021/03/02 09:29:21;;;;;;;14.97;12.23;;;17.70;75.60;;;;;;5074562;28;20458;-68
2021/03/02 09:31:47;;;;;;;13.77;11.83;;;17.90;75.90;;;;;;5075091;28;20430;-67
2021/03/02 09:34:14;;;;;;;11.97;10.43;;;18.10;75.90;;;;;;5083892;28;20447;-68
2021/03/02 09:36:41;;;;;;;13.67;11.83;;;18.30;73.70;;;;;;5075122;28;20444;-68
2021/03/02 09:39:40;;;;;;;14.60;11.63;;;17.50;75.30;;;;;;5091673;28;20445;-68
2021/03/02 09:42:16;;;;;;;15.43;10.97;;;17.30;75.00;;;;;;5057181;28;20493;-67
2021/03/02 09:44:53;;;;;;;11.73;10.30;;;16.90;74.90;;;;;;5072665;28;20471;-68
2021/03/02 09:47:33;;;;;;;12.17;8.90;;;17.40;76.70;;;;;;5078807;28;20555;-68
2021/03/02 09:50:00;;;;;;;11.90;10.40;;;17.30;75.30;;;;;;5079278;28;20635;-67
2021/03/02 09:52:33;;;;;;;12.37;9.27;;;17.50;74.90;;;;;;5075810;28;20425;-68
2021/03/02 09:55:09;;;;;;;11.83;9.80;;;17.60;74.10;;;;;;5083846;28;20488;-67
2021/03/02 10:00:35;;;;;;;10.17;9.17;;;17.50;75.50;;;;;;5082370;28;20500;-68
2021/03/02 10:03:09;;;;;;;11.23;9.00;;;17.30;75.50;;;;;;5080800;28;20953;-68
2021/03/02 10:05:46;;;;;;;9.07;8.17;;;16.60;74.00;;;;;;5069845;28;20176;-67
2021/03/02 10:08:26;;;;;;;13.57;11.03;;;16.50;74.50;;;;;;5071278;28;20928;-68
2021/03/02 10:10:55;;;;;;;9.47;8.27;;;16.60;75.90;;;;;;5093270;28;20431;-68
2021/03/02 10:13:25;;;;;;;9.73;8.73;;;16.80;76.40;;;;;;5094565;28;20460;-67
2021/03/02 10:16:08;;;;;;;10.37;9.30;;;17.00;74.20;;;;;;5081979;28;20505;-68
2021/03/02 10:18:33;;;;;;;12.10;9.50;;;17.00;77.50;;;;;;5075772;28;20540;-68
2021/03/02 10:21:07;;;;;;;10.43;9.10;;;16.60;75.20;;;;;;5083697;28;20519;-68
2021/03/02 10:23:34;;;;;;;11.17;9.63;;;16.40;76.00;;;;;;5089195;28;20671;-67
2021/03/02 10:25:59;;;;;;;12.53;9.17;;;16.20;79.30;;;;;;5094040;28;20498;-68
2021/03/02 10:28:32;;;;;;;11.27;10.07;;;16.40;75.50;;;;;;5091534;28;20492;-68
2021/03/02 10:31:00;;;;;;;14.10;11.23;;;16.40;77.70;;;;;;5085053;28;20212;-68
2021/03/02 10:33:26;;;;;;;14.97;11.80;;;16.20;77.80;;;;;;5097437;28;20458;-67
2021/03/02 10:35:53;;;;;;;15.00;11.50;;;16.00;77.10;;;;;;5089274;28;20422;-68
2021/03/02 10:38:18;;;;;;;24.27;16.40;;;15.80;79.10;;;;;;5078471;28;20976;-68
2021/03/02 10:40:44;;;;;;;17.33;14.17;;;16.00;80.50;;;;;;5085393;28;20475;-67
2021/03/02 10:43:10;;;;;;;16.03;13.57;;;16.00;78.20;;;;;;5080090;28;20246;-67
2021/03/02 10:45:36;;;;;;;16.80;11.90;;;16.00;77.80;;;;;;5087482;28;20427;-68
2021/03/02 10:48:02;;;;;;;16.07;12.17;;;15.60;77.80;;;;;;5093825;28;20190;-68
2021/03/02 10:50:28;;;;;;;14.03;11.10;;;15.50;78.70;;;;;;5093243;28;20269;-68
2021/03/02 10:52:55;;;;;;;13.37;11.47;;;15.60;81.10;;;;;;5091704;28;20543;-67
2021/03/02 10:55:21;;;;;;;21.43;13.20;;;15.80;79.80;;;;;;5094626;28;20214;-68
2021/03/02 10:57:47;;;;;;;15.80;11.30;;;16.00;79.90;;;;;;5086496;28;20475;-67
2021/03/02 11:00:13;;;;;;;14.47;11.10;;;15.90;78.80;;;;;;5082428;28;20438;-68
2021/03/02 11:02:38;;;;;;;14.10;10.60;;;15.90;81.00;;;;;;5086372;28;20243;-67
2021/03/02 11:05:06;;;;;;;14.50;11.10;;;16.20;78.30;;;;;;5094859;28;20426;-68
2021/03/02 11:07:32;;;;;;;16.03;11.73;;;16.00;77.70;;;;;;5091192;28;20223;-67
2021/03/02 11:09:57;;;;;;;16.70;12.37;;;16.00;79.00;;;;;;5095552;28;20982;-68
2021/03/02 11:12:23;;;;;;;15.53;12.60;;;15.80;79.00;;;;;;5083360;28;20425;-67
2021/03/02 11:14:49;;;;;;;15.23;12.10;;;16.00;80.80;;;;;;5093495;28;20544;-67
2021/03/02 11:17:14;;;;;;;14.10;11.70;;;15.90;78.50;;;;;;5090616;28;20180;-67
2021/03/02 11:19:40;;;;;;;15.07;12.30;;;15.90;79.60;;;;;;5090848;28;20736;-68
2021/03/02 11:22:05;;;;;;;15.57;11.77;;;16.00;77.70;;;;;;5075349;28;20575;-68
2021/03/02 11:24:31;;;;;;;14.13;11.70;;;16.00;78.70;;;;;;5052918;28;20214;-68
2021/03/02 11:26:57;;;;;;;17.40;12.40;;;16.10;79.80;;;;;;5066379;28;20201;-67
2021/03/02 11:29:22;;;;;;;13.40;11.70;;;16.10;78.20;;;;;;5092008;28;20201;-67
2021/03/02 11:31:48;;;;;;;15.63;12.00;;;16.10;79.70;;;;;;5094852;28;20170;-68
2021/03/02 11:34:14;;;;;;;13.73;11.00;;;15.50;76.60;;;;;;5092170;28;20595;-67
2021/03/02 11:36:39;;;;;;;13.50;11.03;;;14.80;77.40;;;;;;5094823;28;20184;-67
2021/03/02 11:39:05;;;;;;;14.90;11.53;;;15.00;77.00;;;;;;5093201;28;20211;-67
2021/03/02 11:41:31;;;;;;;19.50;12.80;;;15.40;79.30;;;;;;5092976;28;21282;-67
2021/03/02 11:43:56;;;;;;;15.00;12.03;;;15.80;79.80;;;;;;5083479;28;20211;-68
2021/03/02 11:46:22;;;;;;;17.20;12.47;;;15.70;79.60;;;;;;5094862;28;20614;-67
2021/03/02 11:48:48;;;;;;;16.43;12.87;;;15.90;79.80;;;;;;5093817;28;20206;-67
2021/03/02 11:51:13;;;;;;;15.10;11.93;;;16.00;78.80;;;;;;5094403;28;20540;-68
2021/03/02 11:53:39;;;;;;;14.30;10.90;;;16.20;79.70;;;;;;5090027;28;20213;-67
2021/03/02 11:56:05;;;;;;;16.00;11.47;;;16.40;76.80;;;;;;5079220;28;20281;-68
2021/03/02 11:58:30;;;;;;;15.00;11.40;;;16.20;77.00;;;;;;5081444;28;20208;-67
2021/03/02 12:00:56;;;;;;;15.97;11.70;;;15.90;77.50;;;;;;5089981;28;20180;-68
2021/03/02 12:03:22;;;;;;;13.53;11.10;;;16.00;77.60;;;;;;5094965;28;20208;-67
2021/03/02 12:05:48;;;;;;;16.50;11.97;;;16.20;79.30;;;;;;5084054;28;20188;-68
2021/03/02 12:08:14;;;;;;;14.87;11.70;;;16.30;78.70;;;;;;5066872;28;20757;-67
2021/03/02 12:10:40;;;;;;;15.70;11.27;;;16.30;77.80;;;;;;5078312;28;20441;-68
2021/03/02 12:13:06;;;;;;;15.60;11.37;;;16.40;76.30;;;;;;5078167;28;20217;-67
2021/03/02 12:15:32;;;;;;;14.83;10.70;;;16.40;77.00;;;;;;5080541;28;20413;-68
2021/03/02 12:17:57;;;;;;;14.23;10.90;;;16.40;77.00;;;;;;5077622;28;20449;-67
2021/03/02 12:20:23;;;;;;;13.13;10.20;;;16.40;78.70;;;;;;5081090;28;20221;-68
2021/03/02 12:22:48;;;;;;;13.63;10.53;;;16.30;75.50;;;;;;5084534;28;20223;-68
2021/03/02 12:25:14;;;;;;;17.60;12.77;;;16.50;76.70;;;;;;5086015;28;20259;-69
2021/03/02 12:27:40;;;;;;;17.53;12.17;;;16.50;76.10;;;;;;5085449;28;20634;-67
2021/03/02 12:30:06;;;;;;;15.30;10.73;;;16.60;75.50;;;;;;5072048;28;20186;-68
2021/03/02 12:32:33;;;;;;;17.70;11.47;;;16.80;75.60;;;;;;5081285;28;20176;-68
2021/03/02 12:34:59;;;;;;;15.00;10.60;;;16.80;75.80;;;;;;5074190;28;20549;-67
2021/03/02 12:37:24;;;;;;;16.53;12.80;;;16.40;75.50;;;;;;5081484;28;20531;-67
2021/03/02 12:39:50;;;;;;;17.03;12.93;;;16.10;75.20;;;;;;5082877;28;20701;-67
2021/03/02 12:42:16;;;;;;;17.90;13.70;;;16.30;76.80;;;;;;5089964;28;20319;-67
2021/03/02 12:44:41;;;;;;;18.70;14.30;;;16.40;75.90;;;;;;5081374;28;20283;-67
2021/03/02 12:47:07;;;;;;;19.57;13.50;;;16.40;75.60;;;;;;5073892;28;20185;-66
2021/03/02 12:49:33;;;;;;;19.50;15.50;;;16.70;75.10;;;;;;5071566;28;20205;-68